Waianae, Hawaii
Current Conditions -  °F | °C
As of 2:58 PM on Saturday 25 Oct 2014 (Local Time) from PHHI Reporting Station
Broken Clouds Broken Clouds  
Wind Chill: 81°   Ceiling: 4300
Heat Index: 84°   Visibility: 10mi
Dew Point: 69°   Wind: 15mph
Humidity: 67%   Direction: 100°E
Pressure: 29.98"   Gusts: NA
Location:  21.45°N, 158.19°W
Report Text: PHHI 260058Z AUTO 10013KT 10SM FEW028 BKN043 27/21 A2998 RMK AO2 SLP142 T02730206 $
Loading
Personal Weather Stations






























Interactive Weather Map
Tropical Storm Tracking
New forecast layout! Learn more

10-Day Weather Forecast

Advertisements
Track Severe Weather on mobile